sensor_id;sensor_type;location;lat;lon;timestamp;temperature;humidity
67598;DHT22;62026;39.230;9.122;2023-04-06T00:02:14;12.30;59.30
67598;DHT22;62026;39.230;9.122;2023-04-06T00:04:40;12.30;59.30
67598;DHT22;62026;39.230;9.122;2023-04-06T00:07:06;12.30;59.20
67598;DHT22;62026;39.230;9.122;2023-04-06T00:09:32;12.20;59.30
67598;DHT22;62026;39.230;9.122;2023-04-06T00:11:58;12.20;59.20
67598;DHT22;62026;39.230;9.122;2023-04-06T00:14:24;12.20;59.10
67598;DHT22;62026;39.230;9.122;2023-04-06T00:16:50;12.20;59.00
67598;DHT22;62026;39.230;9.122;2023-04-06T00:19:16;12.20;59.10
67598;DHT22;62026;39.230;9.122;2023-04-06T00:21:42;12.20;59.20
67598;DHT22;62026;39.230;9.122;2023-04-06T00:24:08;12.20;59.30
67598;DHT22;62026;39.230;9.122;2023-04-06T00:26:34;12.20;59.30
67598;DHT22;62026;39.230;9.122;2023-04-06T00:29:00;12.10;59.40
67598;DHT22;62026;39.230;9.122;2023-04-06T00:31:26;12.10;59.40
67598;DHT22;62026;39.230;9.122;2023-04-06T00:33:52;12.10;59.50
67598;DHT22;62026;39.230;9.122;2023-04-06T00:36:18;12.10;59.50
67598;DHT22;62026;39.230;9.122;2023-04-06T00:38:44;12.10;59.50
67598;DHT22;62026;39.230;9.122;2023-04-06T00:41:11;12.10;59.50
67598;DHT22;62026;39.230;9.122;2023-04-06T00:43:37;12.00;59.50
67598;DHT22;62026;39.230;9.122;2023-04-06T00:46:03;12.00;59.60
67598;DHT22;62026;39.230;9.122;2023-04-06T00:48:29;12.00;59.60
67598;DHT22;62026;39.230;9.122;2023-04-06T00:50:57;12.00;59.60
67598;DHT22;62026;39.230;9.122;2023-04-06T00:53:24;12.00;59.70
67598;DHT22;62026;39.230;9.122;2023-04-06T00:55:51;11.90;60.00
67598;DHT22;62026;39.230;9.122;2023-04-06T00:58:17;11.90;59.90
67598;DHT22;62026;39.230;9.122;2023-04-06T01:00:49;11.80;60.10
67598;DHT22;62026;39.230;9.122;2023-04-06T01:03:18;11.80;60.20
67598;DHT22;62026;39.230;9.122;2023-04-06T01:05:44;11.80;60.30
67598;DHT22;62026;39.230;9.122;2023-04-06T01:08:18;11.80;60.20
67598;DHT22;62026;39.230;9.122;2023-04-06T01:10:45;11.70;60.10
67598;DHT22;62026;39.230;9.122;2023-04-06T01:13:21;11.80;60.10
67598;DHT22;62026;39.230;9.122;2023-04-06T01:15:57;11.70;60.20
67598;DHT22;62026;39.230;9.122;2023-04-06T01:18:30;11.70;60.00
67598;DHT22;62026;39.230;9.122;2023-04-06T01:21:10;11.70;60.00
67598;DHT22;62026;39.230;9.122;2023-04-06T01:23:45;11.70;60.00
67598;DHT22;62026;39.230;9.122;2023-04-06T01:26:14;11.70;60.00
67598;DHT22;62026;39.230;9.122;2023-04-06T01:28:40;11.70;60.10
67598;DHT22;62026;39.230;9.122;2023-04-06T01:31:21;11.60;60.10
67598;DHT22;62026;39.230;9.122;2023-04-06T01:33:50;11.60;60.10
67598;DHT22;62026;39.230;9.122;2023-04-06T01:36:19;11.60;60.20
67598;DHT22;62026;39.230;9.122;2023-04-06T01:38:52;11.60;60.20
67598;DHT22;62026;39.230;9.122;2023-04-06T01:41:22;11.60;60.20
67598;DHT22;62026;39.230;9.122;2023-04-06T01:43:51;11.70;60.20
67598;DHT22;62026;39.230;9.122;2023-04-06T01:46:23;11.70;60.30
67598;DHT22;62026;39.230;9.122;2023-04-06T01:48:49;11.60;60.30
67598;DHT22;62026;39.230;9.122;2023-04-06T01:51:30;11.60;60.40
67598;DHT22;62026;39.230;9.122;2023-04-06T01:54:00;11.60;60.40
67598;DHT22;62026;39.230;9.122;2023-04-06T01:56:44;11.70;60.40
67598;DHT22;62026;39.230;9.122;2023-04-06T01:59:43;11.70;60.60
67598;DHT22;62026;39.230;9.122;2023-04-06T02:02:31;11.70;60.70
67598;DHT22;62026;39.230;9.122;2023-04-06T02:05:05;11.60;60.70
67598;DHT22;62026;39.230;9.122;2023-04-06T02:07:32;11.60;60.80
67598;DHT22;62026;39.230;9.122;2023-04-06T02:09:59;11.60;60.80
67598;DHT22;62026;39.230;9.122;2023-04-06T02:12:34;11.60;60.80
67598;DHT22;62026;39.230;9.122;2023-04-06T02:15:00;11.60;61.00
67598;DHT22;62026;39.230;9.122;2023-04-06T02:17:26;11.50;60.90
67598;DHT22;62026;39.230;9.122;2023-04-06T02:19:52;11.50;61.00
67598;DHT22;62026;39.230;9.122;2023-04-06T02:22:18;11.50;61.10
67598;DHT22;62026;39.230;9.122;2023-04-06T02:24:44;11.40;61.00
67598;DHT22;62026;39.230;9.122;2023-04-06T02:27:10;11.40;61.10
67598;DHT22;62026;39.230;9.122;2023-04-06T02:29:36;11.40;61.10
67598;DHT22;62026;39.230;9.122;2023-04-06T02:32:03;11.40;61.20
67598;DHT22;62026;39.230;9.122;2023-04-06T02:34:31;11.30;61.30
67598;DHT22;62026;39.230;9.122;2023-04-06T02:36:57;11.30;61.30
67598;DHT22;62026;39.230;9.122;2023-04-06T02:39:23;11.30;61.30
67598;DHT22;62026;39.230;9.122;2023-04-06T02:41:50;11.30;61.30
67598;DHT22;62026;39.230;9.122;2023-04-06T02:44:20;11.20;61.30
67598;DHT22;62026;39.230;9.122;2023-04-06T02:46:47;11.20;61.40
67598;DHT22;62026;39.230;9.122;2023-04-06T02:49:12;11.20;61.50
67598;DHT22;62026;39.230;9.122;2023-04-06T02:51:39;11.20;61.50
67598;DHT22;62026;39.230;9.122;2023-04-06T02:54:27;11.20;61.40
67598;DHT22;62026;39.230;9.122;2023-04-06T02:56:53;11.20;61.50
67598;DHT22;62026;39.230;9.122;2023-04-06T02:59:21;11.20;61.30
67598;DHT22;62026;39.230;9.122;2023-04-06T03:01:58;11.20;61.40
67598;DHT22;62026;39.230;9.122;2023-04-06T03:04:25;11.10;61.70
67598;DHT22;62026;39.230;9.122;2023-04-06T03:06:54;11.10;61.70
67598;DHT22;62026;39.230;9.122;2023-04-06T03:09:31;11.10;61.70
67598;DHT22;62026;39.230;9.122;2023-04-06T03:11:57;11.10;61.70
67598;DHT22;62026;39.230;9.122;2023-04-06T03:14:27;11.10;61.60
67598;DHT22;62026;39.230;9.122;2023-04-06T03:16:55;11.10;61.70
67598;DHT22;62026;39.230;9.122;2023-04-06T03:19:23;11.00;61.70
67598;DHT22;62026;39.230;9.122;2023-04-06T03:21:50;11.00;61.90
67598;DHT22;62026;39.230;9.122;2023-04-06T03:24:18;11.00;61.80
67598;DHT22;62026;39.230;9.122;2023-04-06T03:26:44;11.00;61.80
67598;DHT22;62026;39.230;9.122;2023-04-06T03:29:09;11.00;62.00
67598;DHT22;62026;39.230;9.122;2023-04-06T03:31:36;11.00;61.90
67598;DHT22;62026;39.230;9.122;2023-04-06T03:34:23;10.90;62.00
67598;DHT22;62026;39.230;9.122;2023-04-06T03:36:49;10.90;61.90
67598;DHT22;62026;39.230;9.122;2023-04-06T03:39:15;10.90;61.90
67598;DHT22;62026;39.230;9.122;2023-04-06T03:41:43;10.80;62.10
67598;DHT22;62026;39.230;9.122;2023-04-06T03:44:29;10.80;62.00
67598;DHT22;62026;39.230;9.122;2023-04-06T03:46:55;10.80;62.10
67598;DHT22;62026;39.230;9.122;2023-04-06T03:49:21;10.80;62.00
67598;DHT22;62026;39.230;9.122;2023-04-06T03:51:50;10.80;62.10
67598;DHT22;62026;39.230;9.122;2023-04-06T03:54:16;10.80;62.00
67598;DHT22;62026;39.230;9.122;2023-04-06T03:56:42;10.80;62.00
67598;DHT22;62026;39.230;9.122;2023-04-06T03:59:08;10.80;61.90
67598;DHT22;62026;39.230;9.122;2023-04-06T04:01:34;10.80;61.90
67598;DHT22;62026;39.230;9.122;2023-04-06T04:04:01;10.80;61.90
67598;DHT22;62026;39.230;9.122;2023-04-06T04:06:30;10.80;61.90
67598;DHT22;62026;39.230;9.122;2023-04-06T04:08:56;10.80;61.90
67598;DHT22;62026;39.230;9.122;2023-04-06T04:11:22;10.80;61.80
67598;DHT22;62026;39.230;9.122;2023-04-06T04:13:54;10.80;61.70
67598;DHT22;62026;39.230;9.122;2023-04-06T04:16:20;10.70;61.80
67598;DHT22;62026;39.230;9.122;2023-04-06T04:18:46;10.60;62.20
67598;DHT22;62026;39.230;9.122;2023-04-06T04:21:14;10.60;62.30
67598;DHT22;62026;39.230;9.122;2023-04-06T04:23:40;10.60;62.40
67598;DHT22;62026;39.230;9.122;2023-04-06T04:26:06;10.60;62.40
67598;DHT22;62026;39.230;9.122;2023-04-06T04:28:33;10.60;62.50
67598;DHT22;62026;39.230;9.122;2023-04-06T04:30:59;10.50;62.80
67598;DHT22;62026;39.230;9.122;2023-04-06T04:33:28;10.50;62.70
67598;DHT22;62026;39.230;9.122;2023-04-06T04:35:56;10.60;62.60
67598;DHT22;62026;39.230;9.122;2023-04-06T04:38:25;10.50;62.60
67598;DHT22;62026;39.230;9.122;2023-04-06T04:40:54;10.50;62.80
67598;DHT22;62026;39.230;9.122;2023-04-06T04:43:21;10.50;62.80
67598;DHT22;62026;39.230;9.122;2023-04-06T04:45:47;10.50;62.80
67598;DHT22;62026;39.230;9.122;2023-04-06T04:48:26;10.50;62.90
67598;DHT22;62026;39.230;9.122;2023-04-06T04:51:00;10.50;63.00
67598;DHT22;62026;39.230;9.122;2023-04-06T04:53:33;10.40;63.10
67598;DHT22;62026;39.230;9.122;2023-04-06T04:56:08;10.40;63.30
67598;DHT22;62026;39.230;9.122;2023-04-06T04:58:34;10.40;63.40
67598;DHT22;62026;39.230;9.122;2023-04-06T05:01:00;10.40;63.30
67598;DHT22;62026;39.230;9.122;2023-04-06T05:03:27;10.40;63.40
67598;DHT22;62026;39.230;9.122;2023-04-06T05:06:00;10.40;63.50
67598;DHT22;62026;39.230;9.122;2023-04-06T05:08:30;10.40;63.60
67598;DHT22;62026;39.230;9.122;2023-04-06T05:10:57;10.40;63.90
67598;DHT22;62026;39.230;9.122;2023-04-06T05:13:24;10.40;63.80
67598;DHT22;62026;39.230;9.122;2023-04-06T05:15:51;10.30;64.00
67598;DHT22;62026;39.230;9.122;2023-04-06T05:18:28;10.30;64.10
67598;DHT22;62026;39.230;9.122;2023-04-06T05:20:55;10.40;64.00
67598;DHT22;62026;39.230;9.122;2023-04-06T05:23:28;10.40;63.70
67598;DHT22;62026;39.230;9.122;2023-04-06T05:25:54;10.30;63.60
67598;DHT22;62026;39.230;9.122;2023-04-06T05:28:22;10.30;63.50
67598;DHT22;62026;39.230;9.122;2023-04-06T05:30:48;10.30;63.30
67598;DHT22;62026;39.230;9.122;2023-04-06T05:33:15;10.30;63.30
67598;DHT22;62026;39.230;9.122;2023-04-06T05:35:56;10.30;63.10
67598;DHT22;62026;39.230;9.122;2023-04-06T05:38:23;10.30;62.90
67598;DHT22;62026;39.230;9.122;2023-04-06T05:40:50;10.30;62.70
67598;DHT22;62026;39.230;9.122;2023-04-06T05:43:20;10.30;62.60
67598;DHT22;62026;39.230;9.122;2023-04-06T05:45:52;10.30;62.40
67598;DHT22;62026;39.230;9.122;2023-04-06T05:48:18;10.40;62.40
67598;DHT22;62026;39.230;9.122;2023-04-06T05:50:50;10.40;62.50
67598;DHT22;62026;39.230;9.122;2023-04-06T05:53:20;10.40;62.40
67598;DHT22;62026;39.230;9.122;2023-04-06T05:55:52;10.50;62.40
67598;DHT22;62026;39.230;9.122;2023-04-06T05:58:20;10.50;62.20
67598;DHT22;62026;39.230;9.122;2023-04-06T06:00:50;10.70;61.80
67598;DHT22;62026;39.230;9.122;2023-04-06T06:03:19;10.70;61.60
67598;DHT22;62026;39.230;9.122;2023-04-06T06:05:50;10.90;61.20
67598;DHT22;62026;39.230;9.122;2023-04-06T06:08:24;11.00;60.80
67598;DHT22;62026;39.230;9.122;2023-04-06T06:10:51;11.20;60.30
67598;DHT22;62026;39.230;9.122;2023-04-06T06:13:20;11.30;60.10
67598;DHT22;62026;39.230;9.122;2023-04-06T06:15:48;11.50;59.70
67598;DHT22;62026;39.230;9.122;2023-04-06T06:18:16;11.60;59.40
67598;DHT22;62026;39.230;9.122;2023-04-06T06:20:42;11.70;59.00
67598;DHT22;62026;39.230;9.122;2023-04-06T06:23:09;11.80;58.80
67598;DHT22;62026;39.230;9.122;2023-04-06T06:25:35;12.00;58.30
67598;DHT22;62026;39.230;9.122;2023-04-06T06:28:02;12.10;57.90
67598;DHT22;62026;39.230;9.122;2023-04-06T06:30:30;12.20;57.70
67598;DHT22;62026;39.230;9.122;2023-04-06T06:32:56;12.30;57.40
67598;DHT22;62026;39.230;9.122;2023-04-06T06:35:23;12.50;57.10
67598;DHT22;62026;39.230;9.122;2023-04-06T06:37:49;12.60;56.70
67598;DHT22;62026;39.230;9.122;2023-04-06T06:40:20;12.80;56.20
67598;DHT22;62026;39.230;9.122;2023-04-06T06:42:49;12.90;56.20
67598;DHT22;62026;39.230;9.122;2023-04-06T06:45:31;12.90;56.10
67598;DHT22;62026;39.230;9.122;2023-04-06T06:47:58;13.10;56.00
67598;DHT22;62026;39.230;9.122;2023-04-06T06:50:24;13.40;55.60
67598;DHT22;62026;39.230;9.122;2023-04-06T06:52:50;13.50;55.30
67598;DHT22;62026;39.230;9.122;2023-04-06T06:55:16;13.70;54.80
67598;DHT22;62026;39.230;9.122;2023-04-06T06:57:44;13.90;54.20
67598;DHT22;62026;39.230;9.122;2023-04-06T07:00:13;13.90;54.30
67598;DHT22;62026;39.230;9.122;2023-04-06T07:02:41;14.20;54.20
67598;DHT22;62026;39.230;9.122;2023-04-06T07:05:07;14.50;53.50
67598;DHT22;62026;39.230;9.122;2023-04-06T07:07:33;14.80;53.20
67598;DHT22;62026;39.230;9.122;2023-04-06T07:10:00;15.00;52.80
67598;DHT22;62026;39.230;9.122;2023-04-06T07:12:27;15.20;52.60
67598;DHT22;62026;39.230;9.122;2023-04-06T07:14:53;15.40;52.10
67598;DHT22;62026;39.230;9.122;2023-04-06T07:17:19;15.70;51.40
67598;DHT22;62026;39.230;9.122;2023-04-06T07:19:45;15.80;51.10
67598;DHT22;62026;39.230;9.122;2023-04-06T07:22:12;16.00;50.40
67598;DHT22;62026;39.230;9.122;2023-04-06T07:24:38;16.20;50.10
67598;DHT22;62026;39.230;9.122;2023-04-06T07:27:04;16.40;49.60
67598;DHT22;62026;39.230;9.122;2023-04-06T07:29:30;16.50;49.40
67598;DHT22;62026;39.230;9.122;2023-04-06T07:31:56;16.50;49.20
67598;DHT22;62026;39.230;9.122;2023-04-06T07:34:23;16.50;49.30
67598;DHT22;62026;39.230;9.122;2023-04-06T07:36:49;16.80;49.00
67598;DHT22;62026;39.230;9.122;2023-04-06T07:39:15;17.00;48.60
67598;DHT22;62026;39.230;9.122;2023-04-06T07:41:41;17.10;48.30
67598;DHT22;62026;39.230;9.122;2023-04-06T07:44:07;17.20;48.30
67598;DHT22;62026;39.230;9.122;2023-04-06T07:46:34;17.40;48.20
67598;DHT22;62026;39.230;9.122;2023-04-06T07:49:01;17.40;48.00
67598;DHT22;62026;39.230;9.122;2023-04-06T07:51:30;17.50;47.70
67598;DHT22;62026;39.230;9.122;2023-04-06T07:53:56;17.70;47.70
67598;DHT22;62026;39.230;9.122;2023-04-06T07:56:22;17.80;47.80
67598;DHT22;62026;39.230;9.122;2023-04-06T07:58:48;17.90;47.90
67598;DHT22;62026;39.230;9.122;2023-04-06T08:01:15;18.00;47.70
67598;DHT22;62026;39.230;9.122;2023-04-06T08:03:41;18.00;47.60
67598;DHT22;62026;39.230;9.122;2023-04-06T08:06:07;18.00;47.80
67598;DHT22;62026;39.230;9.122;2023-04-06T08:08:33;17.90;47.70
67598;DHT22;62026;39.230;9.122;2023-04-06T08:10:59;18.00;47.60
67598;DHT22;62026;39.230;9.122;2023-04-06T08:13:25;18.10;47.40
67598;DHT22;62026;39.230;9.122;2023-04-06T08:15:51;18.10;47.10
67598;DHT22;62026;39.230;9.122;2023-04-06T08:18:17;18.40;47.60
67598;DHT22;62026;39.230;9.122;2023-04-06T08:20:43;18.70;47.70
67598;DHT22;62026;39.230;9.122;2023-04-06T08:23:09;18.90;46.60
67598;DHT22;62026;39.230;9.122;2023-04-06T08:25:36;19.10;46.00
67598;DHT22;62026;39.230;9.122;2023-04-06T08:28:03;19.00;45.30
67598;DHT22;62026;39.230;9.122;2023-04-06T08:30:30;19.00;45.40
67598;DHT22;62026;39.230;9.122;2023-04-06T08:32:56;19.30;44.70
67598;DHT22;62026;39.230;9.122;2023-04-06T08:35:22;19.40;44.10
67598;DHT22;62026;39.230;9.122;2023-04-06T08:37:48;19.60;43.60
67598;DHT22;62026;39.230;9.122;2023-04-06T08:40:14;19.60;43.80
67598;DHT22;62026;39.230;9.122;2023-04-06T08:42:44;19.50;43.70
67598;DHT22;62026;39.230;9.122;2023-04-06T08:45:17;19.70;43.50
67598;DHT22;62026;39.230;9.122;2023-04-06T08:47:50;19.80;43.10
67598;DHT22;62026;39.230;9.122;2023-04-06T08:50:18;19.90;42.80
67598;DHT22;62026;39.230;9.122;2023-04-06T08:52:48;20.00;42.50
67598;DHT22;62026;39.230;9.122;2023-04-06T08:55:15;20.00;42.30
67598;DHT22;62026;39.230;9.122;2023-04-06T08:57:42;20.10;41.80
67598;DHT22;62026;39.230;9.122;2023-04-06T09:00:10;20.20;41.60
67598;DHT22;62026;39.230;9.122;2023-04-06T09:02:42;20.10;41.50
67598;DHT22;62026;39.230;9.122;2023-04-06T09:05:11;20.20;41.30
67598;DHT22;62026;39.230;9.122;2023-04-06T09:07:38;20.30;41.20
67598;DHT22;62026;39.230;9.122;2023-04-06T09:10:05;20.30;40.90
67598;DHT22;62026;39.230;9.122;2023-04-06T09:12:32;20.30;41.00
67598;DHT22;62026;39.230;9.122;2023-04-06T09:15:00;20.40;41.10
67598;DHT22;62026;39.230;9.122;2023-04-06T09:17:31;20.40;40.10
67598;DHT22;62026;39.230;9.122;2023-04-06T09:20:02;20.40;39.70
67598;DHT22;62026;39.230;9.122;2023-04-06T09:22:36;20.50;39.30
67598;DHT22;62026;39.230;9.122;2023-04-06T09:25:03;20.50;39.40
67598;DHT22;62026;39.230;9.122;2023-04-06T09:27:35;20.60;39.70
67598;DHT22;62026;39.230;9.122;2023-04-06T09:30:07;20.60;39.40
67598;DHT22;62026;39.230;9.122;2023-04-06T09:32:49;20.60;38.90
67598;DHT22;62026;39.230;9.122;2023-04-06T09:35:16;20.20;38.50
67598;DHT22;62026;39.230;9.122;2023-04-06T09:37:43;19.90;38.70
67598;DHT22;62026;39.230;9.122;2023-04-06T09:40:10;20.00;39.20
67598;DHT22;62026;39.230;9.122;2023-04-06T09:42:36;20.10;38.20
67598;DHT22;62026;39.230;9.122;2023-04-06T09:45:03;19.90;38.70
67598;DHT22;62026;39.230;9.122;2023-04-06T09:47:33;19.90;39.00
67598;DHT22;62026;39.230;9.122;2023-04-06T09:50:02;20.20;38.90
67598;DHT22;62026;39.230;9.122;2023-04-06T09:52:36;20.30;38.70
67598;DHT22;62026;39.230;9.122;2023-04-06T09:55:06;20.40;38.50
67598;DHT22;62026;39.230;9.122;2023-04-06T09:58:01;20.30;38.90
67598;DHT22;62026;39.230;9.122;2023-04-06T10:00:35;20.50;39.00
67598;DHT22;62026;39.230;9.122;2023-04-06T10:03:12;20.40;39.20
67598;DHT22;62026;39.230;9.122;2023-04-06T10:05:55;20.70;39.00
67598;DHT22;62026;39.230;9.122;2023-04-06T10:08:30;20.60;38.20
67598;DHT22;62026;39.230;9.122;2023-04-06T10:11:00;20.60;38.20
67598;DHT22;62026;39.230;9.122;2023-04-06T10:13:28;20.70;37.70
67598;DHT22;62026;39.230;9.122;2023-04-06T10:15:54;20.60;37.60
67598;DHT22;62026;39.230;9.122;2023-04-06T10:18:21;20.70;37.60
67598;DHT22;62026;39.230;9.122;2023-04-06T10:20:57;20.60;37.60
67598;DHT22;62026;39.230;9.122;2023-04-06T10:23:41;20.50;37.00
67598;DHT22;62026;39.230;9.122;2023-04-06T10:26:15;20.60;37.40
67598;DHT22;62026;39.230;9.122;2023-04-06T10:28:45;20.40;37.20
67598;DHT22;62026;39.230;9.122;2023-04-06T10:31:12;20.40;37.60
67598;DHT22;62026;39.230;9.122;2023-04-06T10:33:39;20.40;37.40
67598;DHT22;62026;39.230;9.122;2023-04-06T10:36:25;20.30;37.50
67598;DHT22;62026;39.230;9.122;2023-04-06T10:38:58;20.20;38.10
67598;DHT22;62026;39.230;9.122;2023-04-06T10:41:45;20.20;37.70
67598;DHT22;62026;39.230;9.122;2023-04-06T10:44:24;20.20;37.30
67598;DHT22;62026;39.230;9.122;2023-04-06T10:46:57;20.30;37.20
67598;DHT22;62026;39.230;9.122;2023-04-06T10:49:27;20.10;37.00
67598;DHT22;62026;39.230;9.122;2023-04-06T10:51:55;20.10;37.30
67598;DHT22;62026;39.230;9.122;2023-04-06T10:54:24;19.90;36.70
67598;DHT22;62026;39.230;9.122;2023-04-06T10:56:51;19.90;36.90
67598;DHT22;62026;39.230;9.122;2023-04-06T10:59:21;19.90;37.30
67598;DHT22;62026;39.230;9.122;2023-04-06T11:01:47;19.90;37.20
67598;DHT22;62026;39.230;9.122;2023-04-06T11:04:17;19.90;37.80
67598;DHT22;62026;39.230;9.122;2023-04-06T11:06:47;20.00;37.70
67598;DHT22;62026;39.230;9.122;2023-04-06T11:09:28;19.90;38.00
67598;DHT22;62026;39.230;9.122;2023-04-06T11:11:56;19.80;38.00
67598;DHT22;62026;39.230;9.122;2023-04-06T11:14:23;19.80;38.10
67598;DHT22;62026;39.230;9.122;2023-04-06T11:16:50;19.60;37.90
67598;DHT22;62026;39.230;9.122;2023-04-06T11:19:16;19.50;38.00
67598;DHT22;62026;39.230;9.122;2023-04-06T11:21:44;19.50;38.40
67598;DHT22;62026;39.230;9.122;2023-04-06T11:24:19;19.30;38.10
67598;DHT22;62026;39.230;9.122;2023-04-06T11:26:56;19.40;38.00
67598;DHT22;62026;39.230;9.122;2023-04-06T11:29:26;19.40;38.50
67598;DHT22;62026;39.230;9.122;2023-04-06T11:32:05;19.40;39.10
67598;DHT22;62026;39.230;9.122;2023-04-06T11:34:39;19.50;39.10
67598;DHT22;62026;39.230;9.122;2023-04-06T11:37:11;19.30;38.70
67598;DHT22;62026;39.230;9.122;2023-04-06T11:39:39;19.10;39.40
67598;DHT22;62026;39.230;9.122;2023-04-06T11:42:08;19.10;39.20
67598;DHT22;62026;39.230;9.122;2023-04-06T11:47:07;19.00;39.10
67598;DHT22;62026;39.230;9.122;2023-04-06T11:49:43;19.00;38.40
67598;DHT22;62026;39.230;9.122;2023-04-06T11:52:22;18.90;38.40
67598;DHT22;62026;39.230;9.122;2023-04-06T11:54:51;18.80;39.20
67598;DHT22;62026;39.230;9.122;2023-04-06T11:57:20;18.80;39.30
67598;DHT22;62026;39.230;9.122;2023-04-06T11:59:49;18.80;38.40
67598;DHT22;62026;39.230;9.122;2023-04-06T12:02:15;18.70;38.90
67598;DHT22;62026;39.230;9.122;2023-04-06T12:04:43;18.70;39.20
67598;DHT22;62026;39.230;9.122;2023-04-06T12:07:09;18.70;39.30
67598;DHT22;62026;39.230;9.122;2023-04-06T12:09:36;18.70;38.70
67598;DHT22;62026;39.230;9.122;2023-04-06T12:12:03;18.50;38.60
67598;DHT22;62026;39.230;9.122;2023-04-06T12:14:29;18.40;39.00
67598;DHT22;62026;39.230;9.122;2023-04-06T12:16:57;18.30;39.10
67598;DHT22;62026;39.230;9.122;2023-04-06T12:19:23;18.40;39.30
67598;DHT22;62026;39.230;9.122;2023-04-06T12:21:52;18.50;39.20
67598;DHT22;62026;39.230;9.122;2023-04-06T12:24:20;18.60;39.30
67598;DHT22;62026;39.230;9.122;2023-04-06T12:26:46;18.50;39.40
67598;DHT22;62026;39.230;9.122;2023-04-06T12:29:12;18.60;39.80
67598;DHT22;62026;39.230;9.122;2023-04-06T12:31:39;18.50;38.90
67598;DHT22;62026;39.230;9.122;2023-04-06T12:34:06;18.50;38.90
67598;DHT22;62026;39.230;9.122;2023-04-06T12:36:33;18.50;39.90
67598;DHT22;62026;39.230;9.122;2023-04-06T12:38:59;18.40;39.30
67598;DHT22;62026;39.230;9.122;2023-04-06T12:41:27;18.40;39.20
67598;DHT22;62026;39.230;9.122;2023-04-06T12:43:54;18.40;38.90
67598;DHT22;62026;39.230;9.122;2023-04-06T12:46:20;18.40;38.40
67598;DHT22;62026;39.230;9.122;2023-04-06T12:48:46;18.30;38.20
67598;DHT22;62026;39.230;9.122;2023-04-06T12:51:13;18.30;37.40
67598;DHT22;62026;39.230;9.122;2023-04-06T12:53:39;18.30;37.80
67598;DHT22;62026;39.230;9.122;2023-04-06T12:56:13;18.30;38.10
67598;DHT22;62026;39.230;9.122;2023-04-06T12:58:41;18.30;37.20
67598;DHT22;62026;39.230;9.122;2023-04-06T13:01:08;18.40;36.90
67598;DHT22;62026;39.230;9.122;2023-04-06T13:03:34;18.30;36.80
67598;DHT22;62026;39.230;9.122;2023-04-06T13:06:00;18.20;37.70
67598;DHT22;62026;39.230;9.122;2023-04-06T13:08:27;17.80;43.00
67598;DHT22;62026;39.230;9.122;2023-04-06T13:10:54;17.70;44.40
67598;DHT22;62026;39.230;9.122;2023-04-06T13:13:24;17.60;43.80
67598;DHT22;62026;39.230;9.122;2023-04-06T13:15:58;17.60;43.30
67598;DHT22;62026;39.230;9.122;2023-04-06T13:18:29;17.50;42.60
67598;DHT22;62026;39.230;9.122;2023-04-06T13:20:57;17.50;42.40
67598;DHT22;62026;39.230;9.122;2023-04-06T13:23:23;17.50;42.30
67598;DHT22;62026;39.230;9.122;2023-04-06T13:26:06;17.20;44.50
67598;DHT22;62026;39.230;9.122;2023-04-06T13:28:35;16.80;45.40
67598;DHT22;62026;39.230;9.122;2023-04-06T13:31:05;16.70;45.10
67598;DHT22;62026;39.230;9.122;2023-04-06T13:33:31;16.70;44.60
67598;DHT22;62026;39.230;9.122;2023-04-06T13:35:58;16.40;45.10
67598;DHT22;62026;39.230;9.122;2023-04-06T13:38:25;16.30;45.20
67598;DHT22;62026;39.230;9.122;2023-04-06T13:40:51;16.40;45.60
67598;DHT22;62026;39.230;9.122;2023-04-06T13:43:17;16.20;45.20
67598;DHT22;62026;39.230;9.122;2023-04-06T13:45:52;16.10;44.70
67598;DHT22;62026;39.230;9.122;2023-04-06T13:48:20;15.90;45.30
67598;DHT22;62026;39.230;9.122;2023-04-06T13:50:46;15.90;45.40
67598;DHT22;62026;39.230;9.122;2023-04-06T13:53:13;16.10;45.40
67598;DHT22;62026;39.230;9.122;2023-04-06T13:55:39;16.10;44.70
67598;DHT22;62026;39.230;9.122;2023-04-06T13:58:05;16.20;44.90
67598;DHT22;62026;39.230;9.122;2023-04-06T14:00:31;16.10;44.30
67598;DHT22;62026;39.230;9.122;2023-04-06T14:02:57;16.00;44.20
67598;DHT22;62026;39.230;9.122;2023-04-06T14:05:23;16.20;44.00
67598;DHT22;62026;39.230;9.122;2023-04-06T14:07:50;16.10;43.40
67598;DHT22;62026;39.230;9.122;2023-04-06T14:10:16;16.00;43.90
67598;DHT22;62026;39.230;9.122;2023-04-06T14:12:43;16.10;44.30
67598;DHT22;62026;39.230;9.122;2023-04-06T14:15:11;16.30;44.50
67598;DHT22;62026;39.230;9.122;2023-04-06T14:17:38;16.30;44.40
67598;DHT22;62026;39.230;9.122;2023-04-06T14:20:06;16.00;44.90
67598;DHT22;62026;39.230;9.122;2023-04-06T14:22:33;15.90;45.10
67598;DHT22;62026;39.230;9.122;2023-04-06T14:24:59;16.00;45.10
67598;DHT22;62026;39.230;9.122;2023-04-06T14:27:25;16.00;45.70
67598;DHT22;62026;39.230;9.122;2023-04-06T14:29:51;15.90;46.20
67598;DHT22;62026;39.230;9.122;2023-04-06T14:32:19;16.10;47.10
67598;DHT22;62026;39.230;9.122;2023-04-06T14:34:46;16.00;46.80
67598;DHT22;62026;39.230;9.122;2023-04-06T14:37:12;16.00;47.40
67598;DHT22;62026;39.230;9.122;2023-04-06T14:39:38;15.80;47.70
67598;DHT22;62026;39.230;9.122;2023-04-06T14:42:04;15.90;47.40
67598;DHT22;62026;39.230;9.122;2023-04-06T14:44:33;15.90;47.20
67598;DHT22;62026;39.230;9.122;2023-04-06T14:46:59;16.10;46.70
67598;DHT22;62026;39.230;9.122;2023-04-06T14:49:25;16.10;47.20
67598;DHT22;62026;39.230;9.122;2023-04-06T14:51:51;15.90;47.20
67598;DHT22;62026;39.230;9.122;2023-04-06T14:54:17;16.00;47.20
67598;DHT22;62026;39.230;9.122;2023-04-06T14:56:43;16.00;46.80
67598;DHT22;62026;39.230;9.122;2023-04-06T14:59:09;16.10;46.90
67598;DHT22;62026;39.230;9.122;2023-04-06T15:01:37;16.10;47.20
67598;DHT22;62026;39.230;9.122;2023-04-06T15:04:03;16.00;47.80
67598;DHT22;62026;39.230;9.122;2023-04-06T15:06:30;15.90;48.30
67598;DHT22;62026;39.230;9.122;2023-04-06T15:08:56;15.80;48.40
67598;DHT22;62026;39.230;9.122;2023-04-06T15:11:22;15.90;48.70
67598;DHT22;62026;39.230;9.122;2023-04-06T15:13:48;15.80;48.90
67598;DHT22;62026;39.230;9.122;2023-04-06T15:16:14;15.80;49.50
67598;DHT22;62026;39.230;9.122;2023-04-06T15:18:40;15.70;50.40
67598;DHT22;62026;39.230;9.122;2023-04-06T15:21:06;15.70;50.30
67598;DHT22;62026;39.230;9.122;2023-04-06T15:23:33;15.70;50.30
67598;DHT22;62026;39.230;9.122;2023-04-06T15:26:00;15.60;50.20
67598;DHT22;62026;39.230;9.122;2023-04-06T15:28:27;15.60;50.30
67598;DHT22;62026;39.230;9.122;2023-04-06T15:30:54;15.50;49.70
67598;DHT22;62026;39.230;9.122;2023-04-06T15:33:21;15.60;49.90
67598;DHT22;62026;39.230;9.122;2023-04-06T15:35:50;15.60;50.30
67598;DHT22;62026;39.230;9.122;2023-04-06T15:38:16;15.60;50.30
67598;DHT22;62026;39.230;9.122;2023-04-06T15:40:47;15.60;50.50
67598;DHT22;62026;39.230;9.122;2023-04-06T15:43:14;15.50;49.60